• Join FlightAware (Why Join?)
  • Login
  • US Flag 
06:07AM EDT


 

Airport Tracker/Info


-or-


 

Live Flight TrackerFlight Track Log ✈ UPS2592 ✈ 08-Jul-2013 ✈ KSDF - KBIL

Flight Track Log - Related Links

Times and Time Zones

All times are in EDT time to prevent confusion due to time zone crossing. See the UPS2592 flight status page for this flight to view local times or setup timezone preferences in your user account.

Time Position Orientation Groundspeed Altitude Reporting Facility
EDT Latitude Longitude Course Direction KTS MPH feet Rate Location/Type
04:25PM 38.1710 -85.7400 292° West 10 12  Level FlightAware
04:30PM 38.1710 -85.7410 270° West 23 26  Level FlightAware
04:30PM 38.1730 -85.7420 339° North 33 38 60 Level FlightAware
04:31PM 38.1730 -85.7430 270° West 16 18 120 Level FlightAware
04:31PM 38.1760 -85.7440 345° North 20 23 120 Level FlightAware
04:32PM 38.1790 -85.7440 360° North 20 23 120 Level FlightAware
04:32PM 38.1820 -85.7450 345° North 22 25 120 Level FlightAware
04:32PM 38.1830 -85.7460 322° Northwest 22 25 180 Level FlightAware
04:33PM 38.1850 -85.7460 360° North 24 28 180 Level FlightAware
04:33PM 38.1850 -85.7470 270° West 15 17 240 Level FlightAware
04:34PM 38.1810 -85.7470 180° South 76 87 360 Level FlightAware
04:34PM 38.1610 -85.7400 165° South 186 214 500 1,980 Climbing FlightAware
04:35PM 38.1400 -85.7330 165° South 173 199 1,900 2,460 Climbing FlightAware
04:35PM 38.1140 -85.7330 180° South 203 234 2,800 1,560 Climbing FlightAware
04:36PM 38.1030 -85.7350 188° South 219 252 3,000 1,080 Climbing FlightAware
04:36PM 38.0890 -85.7440 207° Southwest 240 276 3,300 1,320 Climbing FlightAware
04:36PM 38.0810 -85.7580 234° Southwest 258 297 3,600 2,340 Climbing FlightAware
04:36PM 38.0780 -85.7760 258° West 262 302 4,200 2,280 Climbing FlightAware
04:37PM 38.0770 -85.8450 269° West 275 316 5,800 1,260 Climbing FlightAware
04:37PM 38.0760 -85.8920 268° West 274 315 5,800 240 Level FlightAware
04:38PM 38.0750 -85.9240 268° West 275 316 6,000 2,100 Climbing FlightAware
04:38PM 38.0710 -85.9830 265° West 281 323 7,700 3,120 Climbing FlightAware
04:39PM 38.0690 -86.0110 265° West 286 329 8,600 3,000 Climbing FlightAware
04:39PM 38.0660 -86.0590 265° West 293 337 9,900 2,040 Climbing FlightAware
04:40PM 38.0610 -86.1340 265° West 338 389 11,000 1,500 Climbing FlightAware
04:40PM 38.0560 -86.2190 266° West 378 435 12,000 2,040 Climbing FlightAware
04:41PM 38.0500 -86.3160 266° West 389 448 13,800 2,400 Climbing FlightAware
04:42PM 38.0390 -86.4460 264° West 405 466 16,000 2,220 Climbing FlightAware
04:43PM 38.0320 -86.5340 264° West 413 475 17,400 2,100 Climbing FlightAware
04:44PM 38.0210 -86.6670 264° West 426 490 19,300 2,160 Climbing FlightAware
04:44PM 38.0130 -86.7840 265° West 428 493 21,000 2,040 Climbing FlightAware
04:45PM 38.0160 -86.8950 272° West 432 497 22,400 1,740 Climbing FlightAware
04:46PM 38.0310 -86.9980 281° West 440 506 23,500 1,440 Climbing FlightAware
04:47PM 38.0530 -87.1120 284° West 452 520 24,500 1,320 Climbing FlightAware
04:47PM 38.0720 -87.2110 284° West 458 527 25,400 1,680 Climbing FlightAware
04:48PM 38.0950 -87.3340 283° West 456 525 26,900 1,740 Climbing FlightAware
04:49PM 38.1150 -87.4400 284° West 455 524 28,000 1,740 Climbing FlightAware
04:49PM 38.1340 -87.5460 283° West 448 516 29,300 1,620 Climbing FlightAware
04:50PM 38.1530 -87.6460 284° West 449 517 30,200 1,440 Climbing FlightAware
04:51PM 38.1720 -87.7490 283° West 446 513 31,200 1,200 Climbing FlightAware
04:51PM 38.1940 -87.8710 283° West 448 516 32,000 540 Climbing FlightAware
04:52PM 38.2120 -87.9720 283° West 449 517 32,000  Level FlightAware
04:53PM 38.2290 -88.0660 283° West 448 516 32,000  Level FlightAware
04:53PM 38.2480 -88.1770 282° West 445 512 32,000  Level FlightAware
04:54PM 38.2670 -88.2790 283° West 445 512 32,000  Level FlightAware
04:55PM 38.2840 -88.3740 283° West 449 517 32,000  Level FlightAware
04:56PM 38.3060 -88.4980 283° West 450 518 32,000  Level FlightAware
04:56PM 38.3240 -88.6010 283° West 448 516 32,000  Level FlightAware
04:57PM 38.3570 -88.7050 292° West 446 513 32,000  Level FlightAware
04:58PM 38.4050 -88.8010 303° West 444 511 32,000  Level FlightAware
04:58PM 38.4470 -88.8880 302° West 443 510 32,000  Level FlightAware
04:59PM 38.4960 -88.9930 301° West 442 509 32,000  Level FlightAware
05:00PM 38.5370 -89.0770 302° West 441 507 32,000  Level FlightAware
05:00PM 38.5830 -89.1750 301° West 440 506 32,000  Level FlightAware
05:01PM 38.6250 -89.2610 302° West 440 506 32,000  Level FlightAware
05:02PM 38.6640 -89.3460 300° West 440 506 32,000  Level FlightAware
05:03PM 38.7120 -89.4490 301° West 440 506 32,000  Level FlightAware
05:03PM 38.7440 -89.5200 300° West 440 506 32,000  Level FlightAware
05:04PM 38.7980 -89.6300 302° West 434 499 32,000  Level FlightAware
05:05PM 38.8550 -89.7510 301° West 432 497 32,000  Level FlightAware
05:06PM 38.9050 -89.8590 301° West 434 499 32,000  Level FlightAware
05:06PM 38.9420 -89.9370 301° West 437 503 32,000  Level FlightAware
05:07PM 38.9880 -90.0380 300° West 438 504 32,000  Level FlightAware
05:08PM 39.0340 -90.1390 300° West 439 505 32,000  Level FlightAware
05:09PM 39.0910 -90.2600 301° West 441 507 32,000  Level FlightAware
05:09PM 39.1320 -90.3480 301° West 441 507 32,000  Level FlightAware
05:10PM 39.1690 -90.4320 300° West 441 507 32,000  Level FlightAware
05:11PM 39.2330 -90.5710 301° West 441 507 32,000  Level FlightAware
05:12PM 39.2730 -90.6590 300° West 442 509 32,000  Level FlightAware
05:12PM 39.3220 -90.7690 300° West 441 507 32,000  Level FlightAware
05:13PM 39.3590 -90.8490 301° West 441 507 32,000  Level FlightAware
05:14PM 39.4070 -90.9580 300° West 442 509 32,000  Level FlightAware
05:14PM 39.4520 -91.0560 301° West 442 509 32,000  Level FlightAware
05:15PM 39.5110 -91.1890 300° West 443 510 32,000  Level FlightAware
05:16PM 39.5540 -91.2830 301° West 442 509 32,000  Level FlightAware
05:17PM 39.5940 -91.3730 300° West 442 509 32,000  Level FlightAware
05:17PM 39.6400 -91.4780 300° West 443 510 32,000  Level FlightAware
05:18PM 39.6740 -91.5550 300° West 443 510 32,000  Level FlightAware
05:19PM 39.7230 -91.6660 300° West 444 511 32,000  Level FlightAware
05:20PM 39.7810 -91.8010 299° West 443 510 32,000  Level FlightAware
05:21PM 39.8240 -91.8970 300° West 442 509 32,000  Level FlightAware
05:21PM 39.8750 -92.0150 299° West 442 509 32,000  Level FlightAware
05:22PM 39.9210 -92.1190 300° West 442 509 32,000  Level FlightAware
05:23PM 39.9830 -92.2620 300° West 433 498 32,000  Level FlightAware
05:24PM 40.0390 -92.3950 299° West 437 503 32,000  Level FlightAware
05:25PM 40.0820 -92.4950 299° West 441 507 32,000  Level FlightAware
05:25PM 40.1180 -92.5790 299° West 439 505 32,000  Level FlightAware
05:26PM 40.1620 -92.6800 300° West 437 503 32,000  Level FlightAware
05:27PM 40.2070 -92.7890 298° West 438 504 32,000  Level FlightAware
05:28PM 40.2490 -92.8870 299° West 439 505 32,000  Level FlightAware
05:28PM 40.2820 -92.9630 300° West 439 505 32,000  Level FlightAware
05:29PM 40.3250 -93.0680 298° West 442 509 32,000  Level FlightAware
05:30PM 40.3621 -93.1553 299° West 443 510 32,000  Level FlightAware ADS-B
05:30PM 40.3918 -93.2260 299° West 442 509 32,000  Level FlightAware ADS-B
05:31PM 40.4224 -93.2988 299° West 441 507 32,000  Level FlightAware ADS-B
05:31PM 40.4534 -93.3740 298° West 439 505 32,000  Level FlightAware ADS-B
05:32PM 40.4837 -93.4485 298° West 438 504 32,000  Level FlightAware ADS-B
05:32PM 40.5133 -93.5186 299° West 438 504 32,000  Level FlightAware ADS-B
05:33PM 40.5447 -93.5956 298° West 438 504 32,000  Level FlightAware ADS-B
05:33PM 40.5737 -93.6656 299° West 438 504 32,000  Level FlightAware ADS-B
05:34PM 40.6027 -93.7361 298° West 438 504 32,000  Level FlightAware ADS-B
05:34PM 40.6323 -93.8087 298° West 438 504 32,000  Level FlightAware ADS-B
05:35PM 40.6612 -93.8792 298° West 438 504 32,000  Level FlightAware ADS-B
05:35PM 40.6904 -93.9496 299° West 437 503 32,000  Level FlightAware ADS-B
05:36PM 40.7195 -94.0222 298° West 437 503 32,000  Level FlightAware ADS-B
05:36PM 40.7485 -94.0927 299° West 438 504 32,000  Level FlightAware ADS-B
05:37PM 40.7774 -94.1655 298° West 438 504 32,000  Level FlightAware ADS-B
05:37PM 40.8068 -94.2365 299° West 439 505 32,000  Level FlightAware ADS-B
05:38PM 40.8364 -94.3098 298° West 440 506 32,000  Level FlightAware ADS-B
05:38PM 40.8655 -94.3834 298° West 440 506 32,000  Level FlightAware ADS-B
05:39PM 40.8947 -94.4548 298° West 440 506 32,000  Level FlightAware ADS-B
05:39PM 40.9264 -94.5354 298° West 441 507 32,000  Level FlightAware ADS-B
05:40PM 40.9550 -94.6068 298° West 440 506 32,000  Level FlightAware ADS-B
05:40PM 40.9837 -94.6781 298° West 441 507 32,000  Level FlightAware ADS-B
05:41PM 41.0123 -94.7496 298° West 440 506 32,000  Level FlightAware ADS-B
05:41PM 41.0452 -94.8332 298° West 440 506 32,000  Level FlightAware ADS-B
05:42PM 41.0744 -94.9068 298° West 439 505 32,000  Level FlightAware ADS-B
05:42PM 41.1030 -94.9805 297° West 438 504 32,000  Level FlightAware ADS-B
05:43PM 41.1311 -95.0520 298° West 437 503 32,000  Level FlightAware ADS-B
05:43PM 41.1591 -95.1232 298° West 437 503 32,000  Level FlightAware ADS-B
05:44PM 41.1890 -95.1995 298° West 438 504 32,000  Level FlightAware ADS-B
05:44PM 41.2171 -95.2713 298° West 440 506 32,000  Level FlightAware ADS-B
05:45PM 41.2452 -95.3433 297° West 440 506 32,000  Level FlightAware ADS-B
05:45PM 41.2735 -95.4178 297° West 439 505 32,000  Level FlightAware ADS-B
05:46PM 41.3017 -95.4896 298° West 437 503 32,000  Level FlightAware ADS-B
05:46PM 41.3295 -95.5610 297° West 436 502 32,000  Level FlightAware ADS-B
05:47PM 41.3575 -95.6349 297° West 434 499 32,000  Level FlightAware ADS-B
05:47PM 41.3855 -95.7061 298° West 433 498 32,000  Level FlightAware ADS-B
05:48PM 41.4132 -95.7800 297° West 436 502 32,000  Level FlightAware ADS-B
05:49PM 41.4408 -95.8520 297° West 436 502 32,000  Level FlightAware ADS-B
05:49PM 41.4684 -95.9235 297° West 433 498 32,000  Level FlightAware ADS-B
05:50PM 41.4958 -95.9970 296° West 432 497 32,000  Level FlightAware ADS-B
05:50PM 41.5236 -96.0682 298° West 432 497 32,000  Level FlightAware ADS-B
05:51PM 41.5507 -96.1417 296° West 431 496 32,000  Level FlightAware ADS-B
05:51PM 41.5787 -96.2154 297° West 432 497 32,000  Level FlightAware ADS-B
05:52PM 41.6056 -96.2869 297° West 434 499 32,000  Level FlightAware ADS-B
05:52PM 41.6331 -96.3611 296° West 434 499 32,000  Level FlightAware ADS-B
05:53PM 41.6615 -96.4354 297° West 433 498 32,000  Level FlightAware ADS-B
05:53PM 41.6889 -96.5095 296° West 433 498 32,000  Level FlightAware ADS-B
05:54PM 41.7163 -96.5840 296° West 434 499 32,000  Level FlightAware ADS-B
05:54PM 41.7433 -96.6563 297° West 435 501 32,000  Level FlightAware ADS-B
05:55PM 41.7705 -96.7286 297° West 436 502 32,000  Level FlightAware ADS-B
05:55PM 41.7974 -96.8013 296° West 437 503 32,000  Level FlightAware ADS-B
05:56PM 41.8250 -96.8767 296° West 438 504 32,000  Level FlightAware ADS-B
05:56PM 41.8522 -96.9496 297° West 438 504 32,000  Level FlightAware ADS-B
05:57PM 41.8793 -97.0250 296° West 438 504 32,000  Level FlightAware ADS-B
05:57PM 41.9076 -97.1004 297° West 437 503 32,000  Level FlightAware ADS-B
05:58PM 41.9343 -97.1759 295° West 436 502 32,000  Level FlightAware ADS-B
05:58PM 41.9613 -97.2491 296° West 437 503 32,000  Level FlightAware ADS-B
05:59PM 41.9887 -97.3247 296° West 438 504 32,000  Level FlightAware ADS-B
05:59PM 42.0163 -97.4005 296° West 439 505 32,000  Level FlightAware ADS-B
06:00PM 42.0436 -97.4766 296° West 440 506 32,000  Level FlightAware ADS-B
06:00PM 42.0704 -97.5504 296° West 440 506 32,000  Level FlightAware ADS-B
06:01PM 42.1077 -97.6540 296° West 440 506 32,000  Level FlightAware ADS-B
06:01PM 42.1344 -97.7304 295° West 439 505 32,000  Level FlightAware ADS-B
06:02PM 42.1613 -97.8041 296° West 438 504 32,000  Level FlightAware ADS-B
06:02PM 42.1875 -97.8778 296° West 437 503 32,000 240 Level FlightAware ADS-B
06:03PM 42.2162 -97.9592 295° West 441 507 32,300 1,140 Climbing FlightAware ADS-B
06:04PM 42.2749 -98.1262 295° West 438 504 33,900 1,020 Climbing FlightAware ADS-B
06:05PM 42.3018 -98.2025 296° West 437 503 34,000 60 Climbing FlightAware ADS-B
06:05PM 42.3274 -98.2760 295° West 432 497 34,000  Level FlightAware ADS-B
06:06PM 42.3534 -98.3488 296° West 429 494 34,000  Level FlightAware ADS-B
06:06PM 42.3795 -98.4237 295° West 426 490 34,000  Level FlightAware ADS-B
06:07PM 42.4079 -98.5058 295° West 428 493 34,000  Level FlightAware ADS-B
06:08PM 42.4536 -98.6392 295° West 428 493 34,000  Level FlightAware ADS-B
06:08PM 42.4787 -98.7091 296° West 428 493 34,000  Level FlightAware ADS-B
06:09PM 42.5054 -98.7774 298° West 426 490 34,000  Level FlightAware ADS-B
06:09PM 42.5090 -98.7869 297° West 425 489 34,000  Level FlightAware ADS-B
06:09PM 42.5129 -98.7993 293° West 424 488 34,000  Level FlightAware ADS-B
06:09PM 42.5305 -98.8778 287° West 424 488 34,000  Level FlightAware ADS-B
06:10PM 42.5726 -99.0547 288° West 424 488 34,000  Level FlightAware ADS-B
06:11PM 42.5911 -99.1304 288° West 423 487 34,000  Level FlightAware ADS-B
06:11PM 42.6096 -99.2081 288° West 422 486 34,000  Level FlightAware ADS-B
06:12PM 42.6283 -99.2834 289° West 421 484 34,000  Level FlightAware ADS-B
06:12PM 42.6470 -99.3584 289° West 420 483 34,000  Level FlightAware ADS-B
06:13PM 42.6657 -99.4331 289° West 418 481 34,000  Level FlightAware ADS-B
06:14PM 42.6861 -99.5125 289° West 418 481 34,000  Level FlightAware ADS-B
06:14PM 42.7116 -99.6089 290° West 420 483 34,000  Level FlightAware ADS-B
06:16PM 42.7897 -99.7725 290° West 421 484 34,000  Level Denver Center
06:17PM 42.8792 -99.8831 318° Northwest 434 499 34,000  Level Denver Center
06:18PM 42.9983 -100.0022 324° Northwest 445 512 34,000  Level Denver Center
06:19PM 43.1028 -100.0942 327° Northwest 448 516 34,000  Level Denver Center
06:20PM 43.2061 -100.1828 328° Northwest 443 510 34,000  Level Denver Center
06:21PM 43.3061 -100.3242 314° West 429 494 34,000  Level Denver Center
06:22PM 43.3575 -100.4683 296° West 422 486 34,000  Level Denver Center
06:23PM 43.4086 -100.6122 296° West 419 482 34,000  Level Minneapolis Center
06:24PM 43.4586 -100.7522 296° West 413 475 34,000  Level Denver Center
06:25PM 43.5189 -100.9289 295° West 417 480 34,000  Level Minneapolis Center
06:26PM 43.5689 -101.0750 295° West 419 482 34,000  Level Minneapolis Center
06:27PM 43.6197 -101.2206 296° West 420 483 34,000  Level Minneapolis Center
06:28PM 43.6692 -101.3658 295° West 421 484 34,000  Level Denver Center
06:29PM 43.7181 -101.5078 296° West 411 473 34,000  Level Denver Center
06:30PM 43.7625 -101.6556 293° West 415 478 34,000  Level Denver Center
06:31PM 43.7942 -101.8078 286° West 414 476 34,000  Level Denver Center
06:32PM 43.8272 -101.9592 287° West 412 474 34,000  Level Denver Center
06:33PM 43.8594 -102.1039 287° West 409 471 34,000  Level Denver Center
06:34PM 43.8922 -102.2578 287° West 405 466 34,000  Level Denver Center
06:35PM 43.9328 -102.4397 287° West 408 470 34,000  Level Denver Center
06:36PM 43.9614 -102.5936 285° West 412 474 34,000  Level Denver Center
06:37PM 43.9886 -102.7456 284° West 409 471 34,000  Level Denver Center
06:38PM 44.0186 -102.9022 285° West 409 471 34,000  Level Denver Center
06:39PM 44.0433 -103.0739 281° West 407 468 34,000  Level Denver Center
06:41PM 44.0492 -103.2267 273° West 413 475 34,000  Level Denver Center
06:42PM 44.0458 -103.4003 269° West 406 467 34,000 -300 Level Denver Center
06:43PM 44.0425 -103.5439 268° West 395 455 33,500 -960 Descending Denver Center
06:44PM 44.0611 -103.7147 279° West 408 470 32,100 -720 Descending Denver Center
06:45PM 44.1131 -103.8469 299° West 407 468 32,000 -60 Descending Denver Center
06:46PM 44.1828 -104.0231 299° West 407 468 32,000  Level Denver Center
06:47PM 44.2361 -104.1539 300° West 405 466 32,000  Level Denver Center
06:48PM 44.2953 -104.3056 299° West 401 461 32,000  Level Denver Center
06:49PM 44.3375 -104.4158 298° West 405 466 32,000  Level Denver Center
06:50PM 44.4044 -104.5872 299° West 397 457 32,000  Level Denver Center
06:51PM 44.4394 -104.6733 300° West 399 459 32,000  Level Salt Lake Center
06:52PM 44.4878 -104.8011 298° West 392 451 32,000  Level Salt Lake Center
06:53PM 44.5417 -104.9419 298° West 374 430 32,000  Level Salt Lake Center
06:54PM 44.5878 -105.0633 298° West 371 427 32,000  Level Salt Lake Center
06:55PM 44.6417 -105.2072 298° West 373 429 32,000  Level Salt Lake Center
06:56PM 44.6881 -105.3292 298° West 370 426 32,000  Level Salt Lake Center
06:57PM 44.7378 -105.4619 298° West 371 427 32,000  Level Salt Lake Center
06:58PM 44.7864 -105.5931 298° West 378 435 32,000  Level Salt Lake Center
06:59PM 44.8342 -105.7208 298° West 373 429 32,000  Level Salt Lake Center
07:00PM 44.8828 -105.8511 298° West 375 432 32,000  Level Salt Lake Center
07:01PM 44.9400 -106.0069 297° West 374 430 32,000  Level Salt Lake Center
07:02PM 44.9883 -106.1408 297° West 381 438 32,000  Level Salt Lake Center
07:03PM 45.0392 -106.2783 298° West 393 452 32,000  Level Salt Lake Center
07:04PM 45.0881 -106.4128 297° West 389 448 32,000  Level Salt Lake Center
07:05PM 45.1367 -106.5458 297° West 383 441 32,000  Level Salt Lake Center
07:06PM 45.1839 -106.6794 297° West 381 438 32,000  Level Salt Lake Center
07:07PM 45.2442 -106.7975 306° West 381 438 32,000  Level Salt Lake Center
07:08PM 45.3764 -106.7942 North 429 494 32,000  Level Salt Lake Center
07:09PM 45.4306 -106.6422 63° Northeast 463 533 32,000  Level Salt Lake Center
07:10PM 45.3867 -106.4839 111° Southeast 447 514 32,000  Level Salt Lake Center
07:11PM 45.3300 -106.3283 117° Southeast 442 509 32,000  Level Salt Lake Center
07:12PM 45.2764 -106.1733 116° Southeast 440 506 32,000  Level Salt Lake Center
07:13PM 45.1953 -106.0653 137° Southeast 416 479 32,000  Level Salt Lake Center
07:14PM 45.0944 -106.0853 188° South 376 433 32,000  Level Salt Lake Center
07:15PM 45.0431 -106.2028 238° Southwest 361 415 32,000  Level Salt Lake Center
07:16PM 45.0756 -106.3658 286° West 370 426 32,000  Level Salt Lake Center
07:17PM 45.1206 -106.4972 296° West 372 428 32,000  Level Salt Lake Center
07:18PM 45.1661 -106.6261 297° West 369 425 32,000  Level Salt Lake Center
07:19PM 45.2100 -106.7531 296° West 363 418 32,000  Level Salt Lake Center
07:20PM 45.3056 -106.8172 335° Northwest 392 451 32,000  Level Salt Lake Center
07:22PM 45.4042 -106.7214 34° Northeast 447 514 32,000  Level Salt Lake Center
07:23PM 45.3836 -106.5192 98° East 457 526 32,100  Climbing Salt Lake Center
07:24PM 45.3164 -106.3797 124° Southeast 437 503 32,000  Descending Salt Lake Center
07:25PM 45.2478 -106.2433 126° Southeast 439 505 32,100  Climbing Salt Lake Center
07:26PM 45.1428 -106.2247 173° South 393 452 32,000 -600 Descending Salt Lake Center
07:27PM 45.0733 -106.3281 226° Southwest 366 421 30,900 -1,680 Descending Salt Lake Center
07:28PM 45.0919 -106.4706 281° West 384 442 28,600 -1,860 Descending Salt Lake Center
07:29PM 45.1408 -106.5981 299° West 373 429 27,200 -1,380 Descending Salt Lake Center
07:30PM 45.1950 -106.7511 297° West 364 419 25,800 -1,560 Descending Salt Lake Center
07:31PM 45.2372 -106.8767 296° West 359 413 24,100 -1,680 Descending Salt Lake Center
07:32PM 45.2764 -107.0008 294° West 353 406 22,400 -1,680 Descending Salt Lake Center
07:33PM 45.2906 -107.1344 279° West 349 402 20,700 -1,620 Descending Salt Lake Center
07:34PM 45.3047 -107.2631 279° West 340 391 19,200 -1,500 Descending Salt Lake Center
07:35PM 45.3169 -107.3892 278° West 333 383 17,700 -1,500 Descending Salt Lake Center
07:36PM 45.3286 -107.5106 278° West 325 374 16,200 -840 Descending Salt Lake Center
07:37PM 45.3333 -107.6583 273° West 315 362 16,100 -60 Descending Salt Lake Center
07:38PM 45.2950 -107.7658 243° Southwest 312 359 16,100 -840 Level Salt Lake Center
07:39PM 45.2547 -107.8725 242° Southwest 313 360 14,400 -1,680 Descending Salt Lake Center
07:40PM 45.2256 -108.0031 252° West 326 375 12,700 -1,140 Descending Salt Lake Center
07:41PM 45.2114 -108.1222 260° West 315 362 12,100 600 Descending Salt Lake Center
07:42PM 45.1950 -108.2561 260° West 321 369 14,000 900 Climbing Salt Lake Center
07:43PM 45.1767 -108.3861 259° West 334 384 14,000 60 Level Salt Lake Center
07:44PM 45.1592 -108.5208 260° West 327 376 14,200 480 Climbing Salt Lake Center
07:45PM 45.1431 -108.6464 260° West 328 377 15,000 360 Climbing Salt Lake Center
07:46PM 45.1483 -108.7728 273° West 329 379 15,000  Level Salt Lake Center
07:47PM 45.1994 -108.8911 302° West 329 379 15,000 -60 Level Salt Lake Center
07:48PM 45.2769 -108.9594 328° Northwest 352 405 14,900 -960 Descending Salt Lake Center
07:49PM 45.3839 -108.9275 12° North 370 426 13,100 -1,680 Descending Salt Lake Center
07:50PM 45.4775 -108.8800 20° North 362 417 11,500 -1,500 Descending Salt Lake Center
07:51PM 45.5694 -108.8144 27° Northeast 353 406 10,100 -1,260 Descending Salt Lake Center
07:52PM 45.6425 -108.7503 32° Northeast 312 359 8,900 -1,500 Descending Salt Lake Center
07:53PM 45.7286 -108.7261 11° North 295 339 7,000 -1,380 Descending Salt Lake Center
07:54PM 45.7950 -108.7275 359° North 238 274 6,100 -540 Descending Salt Lake Center
07:55PM 45.8475 -108.7219 North 185 213 5,900 -660 Descending Salt Lake Center
07:56PM 45.8403 -108.6558 99° East 179 206 4,800 -900 Descending Salt Lake Center
07:58PM 45.8253 -108.5994 111° Southeast 158 182 4,100 -720 Descending Salt Lake Center
07:59PM 45.8100 -108.5444 112° Southeast 145 167 3,400 -720 Descending Salt Lake Center